Terminal Aerodrome Forecast
Issued by NWS

Current Version | Previous Version | Text Only | Print | Product List | Glossary On
Versions: 1 2 3 4 5 6 7 8 9 10 11 12 13 14 15 16 17 18 19 20 21 22
000
FTUS44 KLZK 220538
TAFBPK
TAF
KBPK 220538Z 2206/2306 VRB04KT P6SM BKN008
      TEMPO 2208/2212 2SM -FZDZ
     FM221600 09007KT 6SM BR BKN008 OVC012
     FM222000 14005KT 3SM -SHRA OVC007=

USA.gov is the U.S. government's official web portal to all federal, state and local government web resources and services.